sensor_id;sensor_type;location;lat;lon;timestamp;P1;durP1;ratioP1;P2;durP2;ratioP2
38248;SDS011;24045;51.138;17.126;2023-08-06T00:11:51;2.70;;;1.60;;
38248;SDS011;24045;51.138;17.126;2023-08-06T00:26:54;2.40;;;1.70;;
38248;SDS011;24045;51.138;17.126;2023-08-06T00:41:57;2.60;;;1.50;;
38248;SDS011;24045;51.138;17.126;2023-08-06T00:57:01;2.50;;;1.60;;
38248;SDS011;24045;51.138;17.126;2023-08-06T01:27:46;1.60;;;1.20;;
38248;SDS011;24045;51.138;17.126;2023-08-06T01:42:51;2.00;;;0.90;;
38248;SDS011;24045;51.138;17.126;2023-08-06T01:57:54;3.70;;;0.90;;
38248;SDS011;24045;51.138;17.126;2023-08-06T02:29:33;2.60;;;1.00;;
38248;SDS011;24045;51.138;17.126;2023-08-06T02:44:36;1.30;;;0.90;;
38248;SDS011;24045;51.138;17.126;2023-08-06T02:59:38;1.40;;;0.70;;
38248;SDS011;24045;51.138;17.126;2023-08-06T03:14:41;1.00;;;0.60;;
38248;SDS011;24045;51.138;17.126;2023-08-06T03:29:44;0.50;;;0.50;;
38248;SDS011;24045;51.138;17.126;2023-08-06T03:44:47;0.70;;;0.40;;
38248;SDS011;24045;51.138;17.126;2023-08-06T03:59:50;0.30;;;0.30;;
38248;SDS011;24045;51.138;17.126;2023-08-06T04:14:57;1.60;;;0.50;;
38248;SDS011;24045;51.138;17.126;2023-08-06T04:30:01;0.70;;;0.50;;
38248;SDS011;24045;51.138;17.126;2023-08-06T04:45:04;1.90;;;0.50;;
38248;SDS011;24045;51.138;17.126;2023-08-06T05:00:07;0.40;;;0.40;;
38248;SDS011;24045;51.138;17.126;2023-08-06T05:15:10;1.00;;;0.40;;
38248;SDS011;24045;51.138;17.126;2023-08-06T05:30:13;1.00;;;0.40;;
38248;SDS011;24045;51.138;17.126;2023-08-06T05:45:16;0.80;;;0.50;;
38248;SDS011;24045;51.138;17.126;2023-08-06T06:00:19;2.80;;;0.60;;
38248;SDS011;24045;51.138;17.126;2023-08-06T06:15:22;1.40;;;0.50;;
38248;SDS011;24045;51.138;17.126;2023-08-06T06:30:25;0.40;;;0.30;;
38248;SDS011;24045;51.138;17.126;2023-08-06T06:45:32;1.30;;;0.40;;
38248;SDS011;24045;51.138;17.126;2023-08-06T07:00:35;1.00;;;0.50;;
38248;SDS011;24045;51.138;17.126;2023-08-06T07:15:39;0.90;;;0.40;;
38248;SDS011;24045;51.138;17.126;2023-08-06T07:30:42;0.60;;;0.40;;
38248;SDS011;24045;51.138;17.126;2023-08-06T07:45:46;0.70;;;0.40;;
38248;SDS011;24045;51.138;17.126;2023-08-06T08:00:49;1.40;;;0.40;;
38248;SDS011;24045;51.138;17.126;2023-08-06T08:15:56;0.80;;;0.40;;
38248;SDS011;24045;51.138;17.126;2023-08-06T08:31:00;0.90;;;0.50;;
38248;SDS011;24045;51.138;17.126;2023-08-06T08:46:03;3.00;;;1.10;;
38248;SDS011;24045;51.138;17.126;2023-08-06T09:01:08;1.10;;;0.90;;
38248;SDS011;24045;51.138;17.126;2023-08-06T09:16:11;0.90;;;0.70;;
38248;SDS011;24045;51.138;17.126;2023-08-06T09:31:14;0.80;;;0.60;;
38248;SDS011;24045;51.138;17.126;2023-08-06T09:46:17;3.00;;;0.70;;
38248;SDS011;24045;51.138;17.126;2023-08-06T10:01:20;1.90;;;0.60;;
38248;SDS011;24045;51.138;17.126;2023-08-06T10:16:24;1.40;;;0.70;;
38248;SDS011;24045;51.138;17.126;2023-08-06T10:47:25;3.90;;;0.90;;
38248;SDS011;24045;51.138;17.126;2023-08-06T11:02:34;1.80;;;0.70;;
38248;SDS011;24045;51.138;17.126;2023-08-06T11:17:39;0.50;;;0.50;;
38248;SDS011;24045;51.138;17.126;2023-08-06T11:32:47;5.00;;;0.80;;
38248;SDS011;24045;51.138;17.126;2023-08-06T11:47:50;0.90;;;0.60;;
38248;SDS011;24045;51.138;17.126;2023-08-06T12:02:58;0.90;;;0.50;;
38248;SDS011;24045;51.138;17.126;2023-08-06T12:18:01;2.50;;;0.70;;
38248;SDS011;24045;51.138;17.126;2023-08-06T12:33:04;1.10;;;0.50;;
38248;SDS011;24045;51.138;17.126;2023-08-06T12:48:07;1.10;;;0.80;;
38248;SDS011;24045;51.138;17.126;2023-08-06T13:03:10;0.90;;;0.80;;
38248;SDS011;24045;51.138;17.126;2023-08-06T13:18:14;2.70;;;0.80;;
38248;SDS011;24045;51.138;17.126;2023-08-06T13:33:16;2.30;;;1.00;;
38248;SDS011;24045;51.138;17.126;2023-08-06T13:48:19;1.30;;;0.90;;
38248;SDS011;24045;51.138;17.126;2023-08-06T14:03:22;2.00;;;1.00;;
38248;SDS011;24045;51.138;17.126;2023-08-06T14:18:25;3.00;;;1.30;;
38248;SDS011;24045;51.138;17.126;2023-08-06T14:33:28;1.80;;;0.80;;
38248;SDS011;24045;51.138;17.126;2023-08-06T14:48:30;2.30;;;0.90;;
38248;SDS011;24045;51.138;17.126;2023-08-06T15:03:34;3.00;;;1.10;;
38248;SDS011;24045;51.138;17.126;2023-08-06T15:18:37;1.50;;;1.00;;
38248;SDS011;24045;51.138;17.126;2023-08-06T15:33:40;1.80;;;1.10;;
38248;SDS011;24045;51.138;17.126;2023-08-06T15:48:43;2.40;;;1.20;;
38248;SDS011;24045;51.138;17.126;2023-08-06T16:03:46;2.20;;;1.50;;
38248;SDS011;24045;51.138;17.126;2023-08-06T16:18:48;2.80;;;1.70;;
38248;SDS011;24045;51.138;17.126;2023-08-06T16:33:51;3.20;;;1.80;;
38248;SDS011;24045;51.138;17.126;2023-08-06T16:48:54;3.60;;;2.40;;
38248;SDS011;24045;51.138;17.126;2023-08-06T17:03:57;6.00;;;2.30;;
38248;SDS011;24045;51.138;17.126;2023-08-06T17:19:00;4.10;;;2.40;;
38248;SDS011;24045;51.138;17.126;2023-08-06T17:34:02;3.70;;;2.40;;
38248;SDS011;24045;51.138;17.126;2023-08-06T17:49:05;4.30;;;2.20;;
38248;SDS011;24045;51.138;17.126;2023-08-06T18:04:08;4.80;;;2.60;;
38248;SDS011;24045;51.138;17.126;2023-08-06T18:19:11;5.90;;;2.80;;
38248;SDS011;24045;51.138;17.126;2023-08-06T18:34:14;6.00;;;2.70;;
38248;SDS011;24045;51.138;17.126;2023-08-06T18:49:17;5.00;;;2.40;;
38248;SDS011;24045;51.138;17.126;2023-08-06T19:04:19;4.70;;;2.70;;
38248;SDS011;24045;51.138;17.126;2023-08-06T19:19:22;3.90;;;2.30;;
38248;SDS011;24045;51.138;17.126;2023-08-06T19:34:25;3.90;;;2.20;;
38248;SDS011;24045;51.138;17.126;2023-08-06T19:49:28;4.80;;;3.00;;
38248;SDS011;24045;51.138;17.126;2023-08-06T20:04:30;5.60;;;2.90;;
38248;SDS011;24045;51.138;17.126;2023-08-06T20:19:33;6.50;;;2.90;;
38248;SDS011;24045;51.138;17.126;2023-08-06T20:34:36;11.20;;;3.30;;
38248;SDS011;24045;51.138;17.126;2023-08-06T20:49:39;7.30;;;4.60;;
38248;SDS011;24045;51.138;17.126;2023-08-06T21:04:42;8.50;;;5.20;;
38248;SDS011;24045;51.138;17.126;2023-08-06T21:19:45;5.20;;;3.20;;
38248;SDS011;24045;51.138;17.126;2023-08-06T21:34:48;5.60;;;3.10;;
38248;SDS011;24045;51.138;17.126;2023-08-06T21:49:50;5.80;;;2.80;;
38248;SDS011;24045;51.138;17.126;2023-08-06T22:04:53;5.90;;;3.00;;
38248;SDS011;24045;51.138;17.126;2023-08-06T22:19:56;9.10;;;3.00;;
38248;SDS011;24045;51.138;17.126;2023-08-06T22:35:00;5.00;;;2.60;;
38248;SDS011;24045;51.138;17.126;2023-08-06T22:50:03;4.20;;;2.50;;
38248;SDS011;24045;51.138;17.126;2023-08-06T23:05:06;8.10;;;4.10;;
38248;SDS011;24045;51.138;17.126;2023-08-06T23:20:09;7.00;;;2.90;;
38248;SDS011;24045;51.138;17.126;2023-08-06T23:35:12;7.20;;;3.10;;
38248;SDS011;24045;51.138;17.126;2023-08-06T23:50:15;4.90;;;2.20;;
